createdAt,value
2017-12-29T00:00:11.520Z,0
2017-12-29T00:01:12.003Z,0
2017-12-29T00:02:10.953Z,0
2017-12-29T00:03:11.353Z,0
2017-12-29T00:04:12.944Z,0
2017-12-29T00:05:12.809Z,0
2017-12-29T00:06:12.196Z,0
2017-12-29T00:07:13.856Z,0
2017-12-29T00:08:14.901Z,0
2017-12-29T00:09:13.134Z,0
2017-12-29T00:10:13.565Z,0
2017-12-29T00:11:13.916Z,0
2017-12-29T00:12:13.425Z,0
2017-12-29T00:13:14.559Z,0
2017-12-29T00:14:15.193Z,0
2017-12-29T00:15:15.006Z,0
2017-12-29T00:16:13.478Z,0
2017-12-29T00:17:14.884Z,0
2017-12-29T00:18:13.670Z,0
2017-12-29T00:19:14.095Z,0
2017-12-29T00:20:14.273Z,0
2017-12-29T00:21:14.451Z,0
2017-12-29T00:22:14.426Z,0
2017-12-29T00:23:13.513Z,0
2017-12-29T00:24:13.571Z,0
2017-12-29T00:25:13.136Z,0
2017-12-29T00:26:13.189Z,0
2017-12-29T00:27:14.375Z,0
2017-12-29T00:28:13.810Z,0
2017-12-29T00:29:13.755Z,0
2017-12-29T00:30:13.568Z,0
2017-12-29T00:31:14.690Z,0
2017-12-29T00:32:14.200Z,0
2017-12-29T00:33:14.208Z,0
2017-12-29T00:34:14.299Z,0
2017-12-29T00:35:15.388Z,0
2017-12-29T00:36:14.777Z,0
2017-12-29T00:37:16.003Z,0
2017-12-29T00:38:16.618Z,0
2017-12-29T00:39:16.056Z,0
2017-12-29T00:40:15.983Z,0
2017-12-29T00:41:16.069Z,0
2017-12-29T00:42:16.167Z,0
2017-12-29T00:43:16.144Z,0
2017-12-29T00:44:16.549Z,0
2017-12-29T00:45:16.696Z,0
2017-12-29T00:46:17.728Z,0
2017-12-29T00:47:18.143Z,0
2017-12-29T00:48:17.494Z,0
2017-12-29T00:49:17.505Z,0
2017-12-29T00:50:17.997Z,0
2017-12-29T00:51:17.733Z,0
2017-12-29T00:52:17.410Z,0
2017-12-29T00:53:17.482Z,0
2017-12-29T00:54:17.914Z,0
2017-12-29T00:55:19.467Z,0
2017-12-29T00:56:17.471Z,0
2017-12-29T00:57:18.147Z,0
2017-12-29T00:58:18.317Z,0
2017-12-29T00:59:18.090Z,0
2017-12-29T01:00:23.462Z,0
2017-12-29T01:01:24.277Z,0
2017-12-29T01:02:23.445Z,0
2017-12-29T01:03:24.323Z,0
2017-12-29T01:04:23.652Z,0
2017-12-29T01:05:23.281Z,0
2017-12-29T01:06:23.793Z,0
2017-12-29T01:07:24.063Z,0
2017-12-29T01:08:23.763Z,0
2017-12-29T01:09:24.280Z,0
2017-12-29T01:10:24.574Z,0
2017-12-29T01:11:24.390Z,0
2017-12-29T01:12:23.993Z,0
2017-12-29T01:13:24.530Z,0
2017-12-29T01:14:24.594Z,0
2017-12-29T01:15:24.138Z,0
2017-12-29T01:16:25.019Z,0
2017-12-29T01:17:24.335Z,0
2017-12-29T01:18:24.570Z,0
2017-12-29T01:19:24.738Z,0
2017-12-29T01:20:25.180Z,0
2017-12-29T01:21:25.306Z,0
2017-12-29T01:22:25.753Z,0
2017-12-29T01:23:25.744Z,0
2017-12-29T01:24:25.387Z,0
2017-12-29T01:25:26.051Z,0
2017-12-29T01:26:25.507Z,0
2017-12-29T01:27:25.645Z,0
2017-12-29T01:28:25.792Z,0
2017-12-29T01:29:26.134Z,0
2017-12-29T01:30:26.197Z,0
2017-12-29T01:31:26.627Z,0
2017-12-29T01:32:26.410Z,0
2017-12-29T01:33:27.219Z,0
2017-12-29T01:34:26.883Z,0
2017-12-29T01:35:28.323Z,0
2017-12-29T01:36:26.419Z,0
2017-12-29T01:37:26.992Z,0
2017-12-29T01:38:27.850Z,0
2017-12-29T01:39:26.714Z,0
2017-12-29T01:40:27.088Z,0
2017-12-29T01:41:27.228Z,0
2017-12-29T01:42:27.409Z,0
2017-12-29T01:43:28.105Z,0
2017-12-29T01:44:27.392Z,0
2017-12-29T01:45:28.052Z,0
2017-12-29T01:46:28.193Z,0
2017-12-29T01:47:28.397Z,0
2017-12-29T01:48:29.056Z,0
2017-12-29T01:49:28.697Z,0
2017-12-29T01:50:29.365Z,0
2017-12-29T01:51:29.107Z,0
2017-12-29T01:52:30.361Z,0
2017-12-29T01:53:29.352Z,0
2017-12-29T01:54:29.900Z,0
2017-12-29T01:55:29.826Z,0
2017-12-29T01:56:30.665Z,0
2017-12-29T01:57:30.373Z,0
2017-12-29T01:58:29.866Z,0
2017-12-29T01:59:31.176Z,0
2017-12-29T02:00:30.292Z,0
2017-12-29T02:01:31.366Z,0
2017-12-29T02:02:31.778Z,0
2017-12-29T02:03:31.915Z,0
2017-12-29T02:04:32.209Z,0
2017-12-29T02:05:32.898Z,0
2017-12-29T02:06:32.887Z,0
2017-12-29T02:07:32.842Z,0
2017-12-29T02:08:33.031Z,0
2017-12-29T02:09:32.968Z,0
2017-12-29T02:10:33.174Z,0
2017-12-29T02:11:33.002Z,0
2017-12-29T02:12:33.516Z,0
2017-12-29T02:13:33.537Z,0
2017-12-29T02:14:33.602Z,0
2017-12-29T02:15:33.812Z,0
2017-12-29T02:16:33.468Z,0
2017-12-29T02:17:33.769Z,0
2017-12-29T02:18:34.137Z,0
2017-12-29T02:19:34.078Z,0
2017-12-29T02:20:34.717Z,0
2017-12-29T02:21:34.227Z,0
2017-12-29T02:22:34.342Z,0
2017-12-29T02:23:34.940Z,0
2017-12-29T02:24:35.134Z,0
2017-12-29T02:25:35.035Z,0
2017-12-29T02:26:35.836Z,0
2017-12-29T02:27:36.090Z,0
2017-12-29T02:28:36.138Z,0
2017-12-29T02:29:36.232Z,0
2017-12-29T02:30:37.222Z,0
2017-12-29T02:31:38.058Z,0
2017-12-29T02:32:37.925Z,0
2017-12-29T02:33:37.818Z,0
2017-12-29T02:34:38.004Z,0
2017-12-29T02:35:38.283Z,0
2017-12-29T02:36:38.179Z,0
2017-12-29T02:37:38.762Z,0
2017-12-29T02:38:39.145Z,0
2017-12-29T02:39:38.300Z,0
2017-12-29T02:40:37.955Z,0
2017-12-29T02:41:38.050Z,0
2017-12-29T02:42:38.350Z,0
2017-12-29T02:43:38.282Z,0
2017-12-29T02:44:39.385Z,0
2017-12-29T02:45:38.071Z,0
2017-12-29T02:46:38.810Z,0
2017-12-29T02:47:39.952Z,0
2017-12-29T02:48:39.267Z,0
2017-12-29T02:49:38.236Z,0
2017-12-29T02:50:38.220Z,0
2017-12-29T02:51:38.506Z,0
2017-12-29T02:52:38.400Z,0
2017-12-29T02:53:38.589Z,0
2017-12-29T02:54:38.807Z,0
2017-12-29T02:55:40.037Z,0
2017-12-29T02:56:39.315Z,0
2017-12-29T02:57:38.340Z,0
2017-12-29T02:58:38.255Z,0
2017-12-29T02:59:44.097Z,0
2017-12-29T03:00:43.276Z,0
2017-12-29T03:01:43.126Z,0
2017-12-29T03:02:43.579Z,0
2017-12-29T03:03:42.915Z,0
2017-12-29T03:04:43.976Z,0
2017-12-29T03:05:42.921Z,0
2017-12-29T03:06:43.187Z,0
2017-12-29T03:07:43.128Z,0
2017-12-29T03:08:43.141Z,0
2017-12-29T03:09:43.757Z,0
2017-12-29T03:10:44.579Z,0
2017-12-29T03:11:43.833Z,0
2017-12-29T03:12:44.498Z,0
2017-12-29T03:13:43.882Z,0
2017-12-29T03:14:43.860Z,0
2017-12-29T03:15:44.485Z,0
2017-12-29T03:16:44.004Z,0
2017-12-29T03:17:45.201Z,0
2017-12-29T03:18:44.421Z,0
2017-12-29T03:19:44.984Z,0
2017-12-29T03:20:46.681Z,0
2017-12-29T03:21:45.527Z,0
2017-12-29T03:22:45.277Z,0
2017-12-29T03:23:45.161Z,0
2017-12-29T03:24:45.270Z,0
2017-12-29T03:25:45.756Z,0
2017-12-29T03:26:45.554Z,0
2017-12-29T03:27:45.766Z,0
2017-12-29T03:28:46.138Z,0
2017-12-29T03:29:46.066Z,0
2017-12-29T03:30:45.700Z,0
2017-12-29T03:31:45.799Z,0
2017-12-29T03:32:45.699Z,0
2017-12-29T03:33:46.002Z,0
2017-12-29T03:34:46.417Z,0
2017-12-29T03:35:46.158Z,0
2017-12-29T03:36:46.047Z,0
2017-12-29T03:37:46.500Z,0
2017-12-29T03:38:46.397Z,0
2017-12-29T03:39:46.451Z,0
2017-12-29T03:40:47.027Z,0
2017-12-29T03:41:47.673Z,0
2017-12-29T03:42:47.390Z,0
2017-12-29T03:43:47.194Z,0
2017-12-29T03:44:47.684Z,0
2017-12-29T03:46:02.829Z,0
2017-12-29T03:46:46.508Z,0
2017-12-29T03:47:47.060Z,0
2017-12-29T03:48:46.927Z,0
2017-12-29T03:49:47.060Z,0
2017-12-29T03:50:46.870Z,0
2017-12-29T03:51:47.268Z,0
2017-12-29T03:52:47.467Z,0
2017-12-29T03:53:47.435Z,0
2017-12-29T03:54:48.271Z,0
2017-12-29T03:55:49.755Z,0
2017-12-29T03:56:49.749Z,0
2017-12-29T03:57:48.501Z,0
2017-12-29T03:58:47.442Z,0
2017-12-29T03:59:47.444Z,0
2017-12-29T04:00:48.009Z,0
2017-12-29T04:01:48.121Z,0
2017-12-29T04:02:48.265Z,0
2017-12-29T04:03:48.112Z,0
2017-12-29T04:04:48.147Z,0
2017-12-29T04:05:48.417Z,0
2017-12-29T04:06:48.483Z,0
2017-12-29T04:07:49.331Z,0
2017-12-29T04:08:49.754Z,0
2017-12-29T04:09:49.941Z,0
2017-12-29T04:10:49.929Z,0
2017-12-29T04:11:50.132Z,0
2017-12-29T04:12:50.019Z,0
2017-12-29T04:13:50.463Z,0
2017-12-29T04:14:50.622Z,0
2017-12-29T04:15:50.750Z,0
2017-12-29T04:16:51.759Z,0
2017-12-29T04:17:53.368Z,0
2017-12-29T04:18:52.275Z,0
2017-12-29T04:19:52.287Z,0
2017-12-29T04:20:52.066Z,0
2017-12-29T04:21:52.539Z,0
2017-12-29T04:22:53.077Z,0
2017-12-29T04:23:51.798Z,0
2017-12-29T04:24:51.885Z,0
2017-12-29T04:25:52.588Z,0
2017-12-29T04:26:52.862Z,0
2017-12-29T04:27:52.953Z,0
2017-12-29T04:28:53.173Z,0
2017-12-29T04:29:54.179Z,0
2017-12-29T04:30:53.024Z,0
2017-12-29T04:31:52.963Z,0
2017-12-29T04:32:53.057Z,0
2017-12-29T04:33:53.919Z,0
2017-12-29T04:34:53.995Z,0
2017-12-29T04:35:54.384Z,0
2017-12-29T04:36:54.028Z,0
2017-12-29T04:37:53.615Z,0
2017-12-29T04:38:54.331Z,0
2017-12-29T04:39:54.541Z,0
2017-12-29T04:40:54.116Z,0
2017-12-29T04:43:15.446Z,0
2017-12-29T04:44:00.210Z,0
2017-12-29T04:44:59.980Z,0
2017-12-29T04:45:59.644Z,0
2017-12-29T04:46:59.685Z,0
2017-12-29T04:47:59.499Z,0
2017-12-29T04:48:59.443Z,0
2017-12-29T04:50:00.002Z,0
2017-12-29T04:50:59.650Z,0
2017-12-29T04:52:00.179Z,0
2017-12-29T04:53:00.887Z,0
2017-12-29T04:54:00.647Z,0
2017-12-29T04:55:00.680Z,0
2017-12-29T04:56:01.150Z,0
2017-12-29T04:57:00.887Z,0
2017-12-29T04:58:00.595Z,0
2017-12-29T04:59:00.540Z,0
2017-12-29T05:00:03.651Z,0
2017-12-29T05:01:01.617Z,0
2017-12-29T05:02:01.619Z,0
2017-12-29T05:03:01.873Z,0
2017-12-29T05:04:02.234Z,0
2017-12-29T05:05:01.995Z,0
2017-12-29T05:06:02.995Z,0
2017-12-29T05:07:02.274Z,0
2017-12-29T05:08:02.039Z,0
2017-12-29T05:09:02.435Z,0
2017-12-29T05:10:02.018Z,0
2017-12-29T05:11:02.164Z,0
2017-12-29T05:12:02.340Z,0
2017-12-29T05:13:02.375Z,0
2017-12-29T05:14:02.412Z,0
2017-12-29T05:15:02.950Z,0
2017-12-29T05:16:03.311Z,0
2017-12-29T05:17:02.629Z,0
2017-12-29T05:18:02.438Z,0
2017-12-29T05:19:03.165Z,0
2017-12-29T05:20:03.350Z,0
2017-12-29T05:21:03.347Z,0
2017-12-29T05:22:02.858Z,0
2017-12-29T05:23:03.973Z,0
2017-12-29T05:24:03.485Z,0
2017-12-29T05:25:03.992Z,0
2017-12-29T05:26:04.978Z,0
2017-12-29T05:27:03.783Z,0
2017-12-29T05:28:04.533Z,0
2017-12-29T05:29:04.580Z,0
2017-12-29T05:30:04.459Z,0
2017-12-29T05:31:04.528Z,0
2017-12-29T05:32:05.112Z,0
2017-12-29T05:33:06.095Z,0
2017-12-29T05:34:04.520Z,0
2017-12-29T05:35:04.714Z,0
2017-12-29T05:36:05.468Z,0
2017-12-29T05:37:04.836Z,0
2017-12-29T05:38:05.656Z,0
2017-12-29T05:39:05.411Z,0
2017-12-29T05:40:05.326Z,0
2017-12-29T05:41:04.909Z,0
2017-12-29T05:42:06.281Z,0
2017-12-29T05:43:06.219Z,0
2017-12-29T05:44:06.636Z,0
2017-12-29T05:45:05.140Z,0
2017-12-29T05:46:05.643Z,0
2017-12-29T05:47:06.197Z,0
2017-12-29T05:48:06.909Z,0
2017-12-29T05:49:06.832Z,0
2017-12-29T05:50:05.284Z,0
2017-12-29T05:51:05.442Z,0
2017-12-29T05:52:05.642Z,0
2017-12-29T05:53:06.051Z,0
2017-12-29T05:54:06.580Z,0
2017-12-29T05:55:05.827Z,0
2017-12-29T05:56:05.753Z,0
2017-12-29T05:57:06.549Z,0
2017-12-29T05:58:07.354Z,0
2017-12-29T05:59:06.782Z,0
2017-12-29T06:00:07.736Z,0
2017-12-29T06:01:09.339Z,0
2017-12-29T06:02:09.649Z,0
2017-12-29T06:03:08.546Z,0
2017-12-29T06:04:08.489Z,0
2017-12-29T06:05:09.442Z,0
2017-12-29T06:06:09.052Z,0
2017-12-29T06:07:08.974Z,0
2017-12-29T06:08:09.835Z,0
2017-12-29T06:09:09.768Z,0
2017-12-29T06:10:09.613Z,0
2017-12-29T06:11:10.087Z,0
2017-12-29T06:12:10.074Z,0
2017-12-29T06:13:10.004Z,0
2017-12-29T06:14:10.630Z,0
2017-12-29T06:15:10.817Z,0
2017-12-29T06:16:10.825Z,0
2017-12-29T06:17:10.523Z,0
2017-12-29T06:18:10.417Z,0
2017-12-29T06:19:10.951Z,0
2017-12-29T06:20:10.474Z,0
2017-12-29T06:21:11.020Z,0
2017-12-29T06:22:10.737Z,0
2017-12-29T06:23:10.876Z,0
2017-12-29T06:24:11.561Z,0
2017-12-29T06:25:12.486Z,0
2017-12-29T06:26:11.683Z,0
2017-12-29T06:27:11.406Z,0
2017-12-29T06:28:11.226Z,0
2017-12-29T06:29:11.263Z,0
2017-12-29T06:30:11.890Z,0
2017-12-29T06:31:12.311Z,0
2017-12-29T06:32:11.847Z,0
2017-12-29T06:33:11.917Z,0
2017-12-29T06:34:12.346Z,0
2017-12-29T06:35:12.110Z,0
2017-12-29T06:36:13.452Z,0
2017-12-29T06:37:13.312Z,0
2017-12-29T06:38:12.631Z,0
2017-12-29T06:39:12.560Z,0
2017-12-29T06:40:12.827Z,0
2017-12-29T06:41:12.749Z,0
2017-12-29T06:42:12.988Z,0
2017-12-29T06:43:14.055Z,0
2017-12-29T06:44:13.718Z,0
2017-12-29T06:45:14.954Z,0
2017-12-29T06:46:14.570Z,0
2017-12-29T06:47:14.293Z,4
2017-12-29T06:48:14.607Z,4
2017-12-29T06:49:14.134Z,4
2017-12-29T06:50:14.035Z,0
2017-12-29T06:51:15.081Z,4
2017-12-29T06:52:15.262Z,4
2017-12-29T06:53:14.503Z,8
2017-12-29T06:54:14.761Z,8
2017-12-29T06:55:14.776Z,12
2017-12-29T06:56:14.528Z,12
2017-12-29T06:57:14.776Z,12
2017-12-29T06:58:15.831Z,12
2017-12-29T06:59:15.130Z,16
2017-12-29T07:00:15.094Z,16
2017-12-29T07:01:15.137Z,20
2017-12-29T07:02:15.620Z,20
2017-12-29T07:03:15.597Z,24
2017-12-29T07:04:15.436Z,24
2017-12-29T07:05:15.425Z,24
2017-12-29T07:06:15.504Z,20
2017-12-29T07:07:15.491Z,24
2017-12-29T07:08:16.021Z,28
2017-12-29T07:09:15.948Z,28
2017-12-29T07:10:15.686Z,32
2017-12-29T07:11:15.968Z,40
2017-12-29T07:12:16.052Z,44
2017-12-29T07:13:16.020Z,48
2017-12-29T07:14:16.127Z,56
2017-12-29T07:15:15.449Z,64
2017-12-29T07:16:15.758Z,68
2017-12-29T07:17:16.395Z,76
2017-12-29T07:18:16.502Z,80
2017-12-29T07:19:16.265Z,88
2017-12-29T07:20:16.605Z,96
2017-12-29T07:21:16.690Z,100
2017-12-29T07:22:17.018Z,108
2017-12-29T07:23:17.419Z,112
2017-12-29T07:24:17.005Z,124
2017-12-29T07:25:17.553Z,132
2017-12-29T07:26:17.658Z,136
2017-12-29T07:27:17.804Z,144
2017-12-29T07:28:17.293Z,136
2017-12-29T07:29:17.895Z,132
2017-12-29T07:30:17.714Z,132
2017-12-29T07:31:18.225Z,148
2017-12-29T07:32:19.449Z,156
2017-12-29T07:33:18.016Z,160
2017-12-29T07:34:20.017Z,172
2017-12-29T07:35:19.319Z,184
2017-12-29T07:36:19.073Z,200
2017-12-29T07:37:18.977Z,208
2017-12-29T07:38:19.085Z,212
2017-12-29T07:39:19.139Z,212
2017-12-29T07:40:19.688Z,232
2017-12-29T07:41:19.450Z,236
2017-12-29T07:42:19.718Z,260
2017-12-29T07:43:18.922Z,268
2017-12-29T07:44:19.378Z,284
2017-12-29T07:45:19.542Z,320
2017-12-29T07:46:19.974Z,336
2017-12-29T07:47:21.454Z,376
2017-12-29T07:48:20.602Z,392
2017-12-29T07:49:20.556Z,396
2017-12-29T07:50:21.067Z,412
2017-12-29T07:51:21.036Z,436
2017-12-29T07:52:21.316Z,456
2017-12-29T07:53:21.254Z,460
2017-12-29T07:54:21.134Z,448
2017-12-29T07:55:20.929Z,496
2017-12-29T07:56:22.472Z,504
2017-12-29T07:57:22.773Z,512
2017-12-29T07:58:22.673Z,500
2017-12-29T07:59:22.152Z,512
2017-12-29T08:00:23.504Z,532
2017-12-29T08:01:23.003Z,500
2017-12-29T08:02:23.296Z,480
2017-12-29T08:03:22.825Z,508
2017-12-29T08:04:22.809Z,496
2017-12-29T08:05:22.696Z,496
2017-12-29T08:06:23.442Z,472
2017-12-29T08:07:23.770Z,484
2017-12-29T08:08:23.998Z,516
2017-12-29T08:09:23.908Z,584
2017-12-29T08:10:23.981Z,608
2017-12-29T08:11:23.123Z,624
2017-12-29T08:12:23.974Z,680
2017-12-29T08:13:23.746Z,680
2017-12-29T08:14:23.192Z,540
2017-12-29T08:15:23.612Z,576
2017-12-29T08:16:22.639Z,504
2017-12-29T08:17:22.441Z,468
2017-12-29T08:18:21.784Z,384
2017-12-29T08:19:22.236Z,364
2017-12-29T08:20:22.659Z,420
2017-12-29T08:21:22.798Z,416
2017-12-29T08:22:23.824Z,404
2017-12-29T08:23:22.791Z,416
2017-12-29T08:24:22.695Z,424
2017-12-29T08:25:23.517Z,380
2017-12-29T08:26:23.269Z,380
2017-12-29T08:27:23.294Z,356
2017-12-29T08:28:24.106Z,336
2017-12-29T08:29:23.346Z,336
2017-12-29T08:30:23.784Z,328
2017-12-29T08:31:23.983Z,320
2017-12-29T08:32:24.416Z,312
2017-12-29T08:33:24.670Z,288
2017-12-29T08:34:25.550Z,312
2017-12-29T08:35:25.928Z,396
2017-12-29T08:36:25.943Z,548
2017-12-29T08:37:25.679Z,664
2017-12-29T08:38:25.618Z,700
2017-12-29T08:39:25.822Z,776
2017-12-29T08:40:26.302Z,860
2017-12-29T08:41:25.799Z,908
2017-12-29T08:42:26.048Z,972
2017-12-29T08:43:27.382Z,1052
2017-12-29T08:44:26.195Z,1032
2017-12-29T08:45:26.105Z,1220
2017-12-29T08:46:27.426Z,1276
2017-12-29T08:47:27.727Z,1440
2017-12-29T08:48:28.089Z,1512
2017-12-29T08:49:27.978Z,1528
2017-12-29T08:50:27.772Z,1680
2017-12-29T08:51:28.481Z,1644
2017-12-29T08:52:28.218Z,1532
2017-12-29T08:53:27.585Z,1520
2017-12-29T08:54:29.001Z,1412
2017-12-29T08:55:28.638Z,1364
2017-12-29T08:56:27.973Z,1268
2017-12-29T08:57:28.423Z,1312
2017-12-29T08:58:28.822Z,1572
2017-12-29T08:59:28.765Z,1512
2017-12-29T09:00:28.544Z,1536
2017-12-29T09:01:28.242Z,1496
2017-12-29T09:02:28.703Z,1372
2017-12-29T09:03:28.575Z,1200
2017-12-29T09:04:28.437Z,1080
2017-12-29T09:05:30.039Z,1012
2017-12-29T09:06:28.450Z,896
2017-12-29T09:07:28.479Z,1012
2017-12-29T09:08:28.693Z,928
2017-12-29T09:09:28.619Z,928
2017-12-29T09:10:28.860Z,916
2017-12-29T09:11:28.921Z,1132
2017-12-29T09:12:29.315Z,972
2017-12-29T09:13:28.749Z,884
2017-12-29T09:14:28.585Z,972
2017-12-29T09:15:29.271Z,992
2017-12-29T09:16:29.086Z,1096
2017-12-29T09:17:29.627Z,1112
2017-12-29T09:18:29.487Z,1116
2017-12-29T09:19:29.516Z,1288
2017-12-29T09:20:29.997Z,1508
2017-12-29T09:21:30.198Z,1404
2017-12-29T09:22:30.257Z,1384
2017-12-29T09:23:29.970Z,1420
2017-12-29T09:24:30.576Z,1452
2017-12-29T09:25:30.230Z,1512
2017-12-29T09:26:30.778Z,1448
2017-12-29T09:27:30.594Z,1344
2017-12-29T09:28:30.841Z,1452
2017-12-29T09:29:30.848Z,1404
2017-12-29T09:30:30.866Z,1380
2017-12-29T09:31:31.026Z,1344
2017-12-29T09:32:30.876Z,1344
2017-12-29T09:33:31.822Z,1396
2017-12-29T09:34:32.651Z,1452
2017-12-29T09:35:31.933Z,1420
2017-12-29T09:36:31.455Z,1508
2017-12-29T09:37:31.703Z,1428
2017-12-29T09:38:31.576Z,1536
2017-12-29T09:39:31.765Z,1712
2017-12-29T09:40:31.774Z,1768
2017-12-29T09:41:32.046Z,1748
2017-12-29T09:42:34.251Z,1728
2017-12-29T09:43:34.745Z,1788
2017-12-29T09:44:34.392Z,1816
2017-12-29T09:45:34.261Z,1816
2017-12-29T09:46:34.439Z,1808
2017-12-29T09:47:34.517Z,1812
2017-12-29T09:48:41.602Z,1784
2017-12-29T09:49:41.971Z,1792
2017-12-29T09:50:41.767Z,1768
2017-12-29T09:51:42.437Z,1764
2017-12-29T09:52:42.062Z,1792
2017-12-29T09:53:42.098Z,1844
2017-12-29T09:54:41.610Z,1876
2017-12-29T09:55:42.029Z,1840
2017-12-29T09:56:42.032Z,1792
2017-12-29T09:57:42.045Z,1764
2017-12-29T09:58:42.351Z,1780
2017-12-29T09:59:41.858Z,1824
2017-12-29T10:00:57.031Z,1856
2017-12-29T10:01:42.274Z,1868
2017-12-29T10:02:41.513Z,1864
2017-12-29T10:03:41.511Z,1872
2017-12-29T10:04:42.131Z,1904
2017-12-29T10:05:42.270Z,1908
2017-12-29T10:06:40.976Z,1892
2017-12-29T10:07:40.818Z,1856
2017-12-29T10:08:41.156Z,1800
2017-12-29T10:09:41.922Z,1800
2017-12-29T10:10:42.489Z,1796
2017-12-29T10:11:42.766Z,1772
2017-12-29T10:12:42.764Z,1792
2017-12-29T10:13:41.682Z,1792
2017-12-29T10:14:42.164Z,1792
2017-12-29T10:15:43.415Z,1768
2017-12-29T10:16:42.571Z,1776
2017-12-29T10:17:43.283Z,1828
2017-12-29T10:18:43.321Z,1932
2017-12-29T10:19:43.313Z,1992
2017-12-29T10:20:43.018Z,2004
2017-12-29T10:21:43.051Z,1952
2017-12-29T10:22:42.127Z,1908
2017-12-29T10:23:42.852Z,1856
2017-12-29T10:24:42.153Z,1844
2017-12-29T10:25:42.819Z,1920
2017-12-29T10:26:42.606Z,1976
2017-12-29T10:27:43.222Z,1952
2017-12-29T10:28:42.823Z,1964
2017-12-29T10:29:43.427Z,1900
2017-12-29T10:30:43.290Z,1888
2017-12-29T10:31:43.644Z,2044
2017-12-29T10:32:43.619Z,2256
2017-12-29T10:33:43.742Z,2344
2017-12-29T10:34:44.050Z,2404
2017-12-29T10:35:44.615Z,2308
2017-12-29T10:36:44.653Z,2196
2017-12-29T10:37:44.384Z,2196
2017-12-29T10:38:44.072Z,2204
2017-12-29T10:39:44.633Z,2240
2017-12-29T10:40:44.376Z,2204
2017-12-29T10:41:44.638Z,2160
2017-12-29T10:42:46.024Z,2116
2017-12-29T10:43:45.057Z,2036
2017-12-29T10:44:45.197Z,1960
2017-12-29T10:45:45.377Z,1928
2017-12-29T10:46:45.276Z,2052
2017-12-29T10:47:45.259Z,2108
2017-12-29T10:48:45.889Z,2144
2017-12-29T10:49:46.343Z,2244
2017-12-29T10:50:46.538Z,2296
2017-12-29T10:51:46.341Z,2336
2017-12-29T10:52:47.041Z,2316
2017-12-29T10:53:47.020Z,2296
2017-12-29T10:54:46.993Z,2344
2017-12-29T10:55:46.924Z,2412
2017-12-29T10:56:47.555Z,2468
2017-12-29T10:57:47.629Z,2476
2017-12-29T10:58:47.433Z,2532
2017-12-29T10:59:48.273Z,2648
2017-12-29T11:00:48.518Z,2776
2017-12-29T11:01:49.386Z,2932
2017-12-29T11:02:47.949Z,3016
2017-12-29T11:03:47.901Z,2964
2017-12-29T11:04:47.624Z,2840
2017-12-29T11:05:48.220Z,2800
2017-12-29T11:06:48.308Z,2752
2017-12-29T11:07:47.923Z,2624
2017-12-29T11:08:48.630Z,2568
2017-12-29T11:09:48.632Z,2612
2017-12-29T11:10:48.220Z,2760
2017-12-29T11:11:49.014Z,2788
2017-12-29T11:12:49.167Z,2776
2017-12-29T11:13:48.741Z,2836
2017-12-29T11:14:49.561Z,3040
2017-12-29T11:15:50.008Z,3016
2017-12-29T11:16:50.136Z,2968
2017-12-29T11:17:49.655Z,2848
2017-12-29T11:18:49.947Z,2772
2017-12-29T11:19:50.175Z,2800
2017-12-29T11:20:50.442Z,2800
2017-12-29T11:21:50.729Z,2908
2017-12-29T11:22:50.327Z,2992
2017-12-29T11:23:50.951Z,2984
2017-12-29T11:24:50.786Z,2988
2017-12-29T11:25:50.582Z,3036
2017-12-29T11:26:51.808Z,3032
2017-12-29T11:27:51.432Z,2984
2017-12-29T11:28:51.944Z,2764
2017-12-29T11:29:51.413Z,2468
2017-12-29T11:30:51.301Z,2212
2017-12-29T11:31:51.962Z,2160
2017-12-29T11:32:52.020Z,2188
2017-12-29T11:33:51.943Z,2272
2017-12-29T11:34:52.838Z,2468
2017-12-29T11:35:52.102Z,2592
2017-12-29T11:36:54.689Z,2472
2017-12-29T11:37:53.403Z,2488
2017-12-29T11:38:53.119Z,2480
2017-12-29T11:39:53.487Z,2428
2017-12-29T11:40:52.993Z,2416
2017-12-29T11:41:53.200Z,2432
2017-12-29T11:42:53.582Z,2484
2017-12-29T11:43:53.247Z,2520
2017-12-29T11:44:53.129Z,2624
2017-12-29T11:45:53.448Z,2800
2017-12-29T11:46:53.437Z,2984
2017-12-29T11:47:53.871Z,3116
2017-12-29T11:48:54.240Z,3248
2017-12-29T11:49:54.353Z,3620
2017-12-29T11:50:54.805Z,3128
2017-12-29T11:51:54.808Z,3008
2017-12-29T11:52:54.922Z,3000
2017-12-29T11:53:55.039Z,3208
2017-12-29T11:54:55.321Z,3056
2017-12-29T11:55:55.591Z,3164
2017-12-29T11:56:55.319Z,3268
2017-12-29T11:57:55.636Z,3252
2017-12-29T11:58:56.015Z,3072
2017-12-29T11:59:55.812Z,2844
2017-12-29T12:00:58.797Z,2616
2017-12-29T12:01:58.783Z,2456
2017-12-29T12:02:58.840Z,2408
2017-12-29T12:03:58.859Z,2388
2017-12-29T12:04:58.383Z,2008
2017-12-29T12:05:58.886Z,1648
2017-12-29T12:06:58.594Z,1544
2017-12-29T12:07:59.145Z,1512
2017-12-29T12:08:59.929Z,1532
2017-12-29T12:09:59.569Z,1592
2017-12-29T12:10:59.686Z,1560
2017-12-29T12:12:00.336Z,1496
2017-12-29T12:12:59.774Z,1460
2017-12-29T12:13:59.804Z,1412
2017-12-29T12:15:00.327Z,1384
2017-12-29T12:16:00.055Z,1428
2017-12-29T12:16:59.715Z,1412
2017-12-29T12:18:00.018Z,1412
2017-12-29T12:18:59.918Z,1488
2017-12-29T12:20:00.729Z,1588
2017-12-29T12:21:00.776Z,1636
2017-12-29T12:22:00.694Z,1600
2017-12-29T12:23:01.019Z,1640
2017-12-29T12:24:01.158Z,1752
2017-12-29T12:25:01.239Z,1720
2017-12-29T12:26:01.262Z,1960
2017-12-29T12:27:01.253Z,2152
2017-12-29T12:28:01.735Z,2100
2017-12-29T12:29:02.198Z,2040
2017-12-29T12:30:02.116Z,1924
2017-12-29T12:31:02.245Z,1884
2017-12-29T12:32:02.198Z,1856
2017-12-29T12:33:02.515Z,1828
2017-12-29T12:34:02.169Z,1884
2017-12-29T12:35:02.833Z,1912
2017-12-29T12:36:02.888Z,2056
2017-12-29T12:37:02.260Z,2368
2017-12-29T12:38:02.661Z,2240
2017-12-29T12:39:03.380Z,2176
2017-12-29T12:40:03.835Z,2060
2017-12-29T12:41:04.297Z,2012
2017-12-29T12:42:04.360Z,2072
2017-12-29T12:43:04.850Z,2000
2017-12-29T12:44:04.330Z,2016
2017-12-29T12:45:05.197Z,2068
2017-12-29T12:46:05.417Z,2088
2017-12-29T12:47:05.217Z,2104
2017-12-29T12:48:05.882Z,2072
2017-12-29T12:49:05.224Z,2160
2017-12-29T12:50:05.405Z,2156
2017-12-29T12:51:05.813Z,1984
2017-12-29T12:52:05.717Z,1780
2017-12-29T12:53:05.926Z,1796
2017-12-29T12:54:06.800Z,1900
2017-12-29T12:55:06.836Z,1844
2017-12-29T12:56:06.296Z,1780
2017-12-29T12:57:06.396Z,1784
2017-12-29T12:58:07.368Z,1892
2017-12-29T12:59:06.637Z,2036
2017-12-29T13:00:07.275Z,1904
2017-12-29T13:01:06.965Z,2000
2017-12-29T13:02:07.467Z,2136
2017-12-29T13:03:07.233Z,1876
2017-12-29T13:04:06.586Z,1904
2017-12-29T13:05:08.722Z,1924
2017-12-29T13:06:08.314Z,1684
2017-12-29T13:07:07.605Z,1612
2017-12-29T13:08:07.800Z,1672
2017-12-29T13:09:08.028Z,1528
2017-12-29T13:10:07.888Z,1472
2017-12-29T13:11:07.732Z,1456
2017-12-29T13:12:07.807Z,1412
2017-12-29T13:13:08.175Z,1368
2017-12-29T13:14:08.053Z,1380
2017-12-29T13:15:08.001Z,1372
2017-12-29T13:16:07.900Z,1348
2017-12-29T13:17:07.956Z,1344
2017-12-29T13:18:07.496Z,1316
2017-12-29T13:19:07.869Z,1312
2017-12-29T13:20:08.435Z,1324
2017-12-29T13:21:08.098Z,1308
2017-12-29T13:22:08.136Z,1272
2017-12-29T13:23:08.711Z,1244
2017-12-29T13:24:10.022Z,1304
2017-12-29T13:25:10.173Z,1188
2017-12-29T13:26:09.110Z,1160
2017-12-29T13:27:09.393Z,1168
2017-12-29T13:28:10.512Z,1132
2017-12-29T13:29:09.621Z,1112
2017-12-29T13:30:10.737Z,1168
2017-12-29T13:31:09.325Z,1160
2017-12-29T13:32:10.038Z,1076
2017-12-29T13:33:10.624Z,1108
2017-12-29T13:34:10.411Z,1160
2017-12-29T13:35:10.601Z,1080
2017-12-29T13:36:10.770Z,1044
2017-12-29T13:37:08.762Z,1028
2017-12-29T13:38:08.451Z,1016
2017-12-29T13:39:09.083Z,1012
2017-12-29T13:40:09.704Z,1008
2017-12-29T13:41:09.505Z,1028
2017-12-29T13:42:09.114Z,1040
2017-12-29T13:43:09.791Z,1040
2017-12-29T13:44:09.833Z,1036
2017-12-29T13:45:10.960Z,1028
2017-12-29T13:46:10.506Z,1028
2017-12-29T13:47:10.466Z,1028
2017-12-29T13:48:09.610Z,1024
2017-12-29T13:49:08.508Z,1020
2017-12-29T13:50:10.910Z,1008
2017-12-29T13:51:11.876Z,992
2017-12-29T13:52:11.398Z,1028
2017-12-29T13:53:10.963Z,1104
2017-12-29T13:54:10.814Z,1124
2017-12-29T13:55:10.804Z,1128
2017-12-29T13:56:11.690Z,1072
2017-12-29T13:57:11.243Z,1108
2017-12-29T13:58:25.975Z,1080
2017-12-29T13:59:10.643Z,1052
2017-12-29T14:00:24.611Z,1116
2017-12-29T14:01:09.512Z,1088
2017-12-29T14:02:10.086Z,1084
2017-12-29T14:03:10.752Z,1080
2017-12-29T14:04:10.482Z,1092
2017-12-29T14:05:11.615Z,1060
2017-12-29T14:06:12.599Z,1036
2017-12-29T14:07:12.226Z,944